createdAt,value
2023-03-24T00:02:21.706Z,1.40
2023-03-24T00:04:49.693Z,1.47
2023-03-24T00:07:16.772Z,1.73
2023-03-24T00:09:44.047Z,1.50
2023-03-24T00:12:11.964Z,1.83
2023-03-24T00:14:38.737Z,1.80
2023-03-24T00:17:06.731Z,1.90
2023-03-24T00:19:33.984Z,1.80
2023-03-24T00:22:01.036Z,1.87
2023-03-24T00:24:27.772Z,2.47
2023-03-24T00:26:57.673Z,2.13
2023-03-24T00:29:25.574Z,2.73
2023-03-24T00:31:52.994Z,2.40
2023-03-24T00:34:21.749Z,2.17
2023-03-24T00:36:49.330Z,2.27
2023-03-24T00:39:17.840Z,1.80
2023-03-24T00:41:45.939Z,2.30
2023-03-24T00:44:18.943Z,2.20
2023-03-24T00:46:46.741Z,1.83
2023-03-24T00:49:15.637Z,3.07
2023-03-24T00:51:43.046Z,2.23
2023-03-24T00:54:11.420Z,2.10
2023-03-24T00:56:40.821Z,2.53
2023-03-24T00:59:10.509Z,1.70
2023-03-24T01:01:38.999Z,2.13
2023-03-24T01:04:06.110Z,2.67
2023-03-24T01:06:36.662Z,2.00
2023-03-24T01:09:05.663Z,2.50
2023-03-24T01:11:36.096Z,1.97
2023-03-24T01:14:04.039Z,2.00
2023-03-24T01:16:31.201Z,2.70
2023-03-24T01:18:59.510Z,1.80
2023-03-24T01:21:26.324Z,1.90
2023-03-24T01:23:53.957Z,2.17
2023-03-24T01:26:20.758Z,2.07
2023-03-24T01:28:47.539Z,2.60
2023-03-24T01:31:14.359Z,3.30
2023-03-24T01:33:41.236Z,2.07
2023-03-24T01:36:08.372Z,3.97
2023-03-24T01:38:35.417Z,2.23
2023-03-24T01:41:02.771Z,2.20
2023-03-24T01:43:33.674Z,2.17
2023-03-24T01:46:20.574Z,2.50
2023-03-24T01:48:54.600Z,2.30
2023-03-24T01:51:43.763Z,2.13
2023-03-24T01:54:37.820Z,2.27
2023-03-24T01:57:12.341Z,1.70
2023-03-24T01:59:41.668Z,1.70
2023-03-24T02:02:09.869Z,2.13
2023-03-24T02:04:39.661Z,1.80
2023-03-24T02:07:14.492Z,2.13
2023-03-24T02:09:41.289Z,2.43
2023-03-24T02:12:08.061Z,1.43
2023-03-24T02:14:34.771Z,2.50
2023-03-24T02:17:27.462Z,1.80
2023-03-24T02:20:10.549Z,2.10
2023-03-24T02:22:58.178Z,2.30
2023-03-24T02:25:43.141Z,2.03
2023-03-24T02:28:57.204Z,2.53
2023-03-24T02:31:57.626Z,1.87
2023-03-24T02:34:55.179Z,2.30
2023-03-24T02:37:32.688Z,2.03
2023-03-24T02:40:17.966Z,1.83
2023-03-24T02:42:51.518Z,2.10
2023-03-24T02:45:35.344Z,2.40
2023-03-24T02:48:20.010Z,3.53
2023-03-24T02:50:59.745Z,1.87
2023-03-24T02:53:41.302Z,2.77
2023-03-24T02:56:23.013Z,2.53
2023-03-24T02:58:54.539Z,2.07
2023-03-24T03:01:31.742Z,1.73
2023-03-24T03:04:02.006Z,1.77
2023-03-24T03:06:31.313Z,1.50
2023-03-24T03:08:59.178Z,2.00
2023-03-24T03:11:25.918Z,1.80
2023-03-24T03:14:04.456Z,2.17
2023-03-24T03:16:38.448Z,2.23
2023-03-24T03:19:18.116Z,2.23
2023-03-24T03:21:45.225Z,1.70
2023-03-24T03:24:34.304Z,2.10
2023-03-24T03:27:03.177Z,1.93
2023-03-24T03:29:33.810Z,1.60
2023-03-24T03:32:07.853Z,1.60
2023-03-24T03:34:47.018Z,1.77
2023-03-24T03:37:35.518Z,1.40
2023-03-24T03:40:12.520Z,2.07
2023-03-24T03:42:39.872Z,1.60
2023-03-24T03:45:09.365Z,2.13
2023-03-24T03:47:36.440Z,2.20
2023-03-24T03:50:04.215Z,2.07
2023-03-24T03:52:31.032Z,2.80
2023-03-24T03:54:58.039Z,1.97
2023-03-24T03:57:24.799Z,5.17
2023-03-24T03:59:51.517Z,2.20
2023-03-24T04:02:49.252Z,2.20
2023-03-24T04:05:32.859Z,2.60
2023-03-24T04:08:19.769Z,2.30
2023-03-24T04:11:25.747Z,2.60
2023-03-24T04:14:04.549Z,2.00
2023-03-24T04:16:51.410Z,2.50
2023-03-24T04:19:41.860Z,2.40
2023-03-24T04:22:42.294Z,2.13
2023-03-24T04:25:20.531Z,3.57
2023-03-24T04:28:15.166Z,2.40
2023-03-24T04:30:57.580Z,2.27
2023-03-24T04:33:42.835Z,2.20
2023-03-24T04:36:22.681Z,2.13
2023-03-24T04:38:53.245Z,2.17
2023-03-24T04:41:21.174Z,1.97
2023-03-24T04:43:48.117Z,2.37
2023-03-24T04:46:18.174Z,2.20
2023-03-24T04:48:48.194Z,2.50
2023-03-24T04:51:16.226Z,2.03
2023-03-24T04:53:42.934Z,2.17
2023-03-24T04:56:27.659Z,2.93
2023-03-24T04:58:54.411Z,3.00
2023-03-24T05:01:21.425Z,2.40
2023-03-24T05:03:49.011Z,2.40
2023-03-24T05:06:16.925Z,2.00
2023-03-24T05:08:43.658Z,4.13
2023-03-24T05:11:10.732Z,2.33
2023-03-24T05:13:37.459Z,2.40
2023-03-24T05:16:04.483Z,2.57
2023-03-24T05:18:31.529Z,1.97
2023-03-24T05:20:58.385Z,2.57
2023-03-24T05:23:25.102Z,1.93
2023-03-24T05:25:51.830Z,2.50
2023-03-24T05:28:18.638Z,2.03
2023-03-24T05:30:45.570Z,2.23
2023-03-24T05:33:12.391Z,2.27
2023-03-24T05:35:39.211Z,2.60
2023-03-24T05:38:05.936Z,2.23
2023-03-24T05:40:33.093Z,2.60
2023-03-24T05:42:59.886Z,3.13
2023-03-24T05:45:26.721Z,2.90
2023-03-24T05:47:53.523Z,2.60
2023-03-24T05:50:20.312Z,3.00
2023-03-24T05:52:47.295Z,2.50
2023-03-24T05:55:16.088Z,2.57
2023-03-24T05:57:43.568Z,3.20
2023-03-24T06:00:16.698Z,3.47
2023-03-24T06:02:44.455Z,3.60
2023-03-24T06:05:11.875Z,2.60
2023-03-24T06:07:39.087Z,2.00
2023-03-24T06:10:07.694Z,2.53
2023-03-24T06:12:34.552Z,2.00
2023-03-24T06:15:01.357Z,2.20
2023-03-24T06:17:30.293Z,2.10
2023-03-24T06:20:04.772Z,2.83
2023-03-24T06:22:34.878Z,2.50
2023-03-24T06:25:05.159Z,2.30
2023-03-24T06:27:31.942Z,2.40
2023-03-24T06:29:58.891Z,2.80
2023-03-24T06:32:26.297Z,2.57
2023-03-24T06:34:53.601Z,2.00
2023-03-24T06:37:21.682Z,2.23
2023-03-24T06:39:48.437Z,2.50
2023-03-24T06:42:16.001Z,2.53
2023-03-24T06:44:43.316Z,2.40
2023-03-24T06:47:10.186Z,2.70
2023-03-24T06:49:37.347Z,2.93
2023-03-24T06:52:04.684Z,3.67
2023-03-24T06:54:31.681Z,3.60
2023-03-24T06:56:58.419Z,4.70
2023-03-24T06:59:25.313Z,4.13
2023-03-24T07:01:52.297Z,3.33
2023-03-24T07:04:19.374Z,4.03
2023-03-24T07:06:59.873Z,3.53
2023-03-24T07:09:32.817Z,3.27
2023-03-24T07:11:59.638Z,3.20
2023-03-24T07:14:26.703Z,3.73
2023-03-24T07:16:53.824Z,3.30
2023-03-24T07:19:21.021Z,3.30
2023-03-24T07:21:50.240Z,3.47
2023-03-24T07:24:17.634Z,2.70
2023-03-24T07:26:44.477Z,2.83
2023-03-24T07:29:11.821Z,2.83
2023-03-24T07:31:39.730Z,2.57
2023-03-24T07:34:06.913Z,2.37
2023-03-24T07:36:33.648Z,2.17
2023-03-24T07:39:00.817Z,2.47
2023-03-24T07:41:29.276Z,2.50
2023-03-24T07:43:56.499Z,1.93
2023-03-24T07:46:23.453Z,2.00
2023-03-24T07:48:50.307Z,1.80
2023-03-24T07:51:19.845Z,2.03
2023-03-24T07:53:47.781Z,1.60
2023-03-24T07:56:15.200Z,2.20
2023-03-24T07:58:42.245Z,2.30
2023-03-24T08:01:10.405Z,1.80
2023-03-24T08:03:37.713Z,1.70
2023-03-24T08:06:05.693Z,2.37
2023-03-24T08:08:35.470Z,1.80
2023-03-24T08:11:02.756Z,1.90
2023-03-24T08:13:29.495Z,2.00
2023-03-24T08:15:56.256Z,1.73
2023-03-24T08:18:24.293Z,1.67
2023-03-24T08:20:54.132Z,2.03
2023-03-24T08:23:20.877Z,2.30
2023-03-24T08:25:49.514Z,2.10
2023-03-24T08:28:16.703Z,2.20
2023-03-24T08:30:43.744Z,1.53
2023-03-24T08:33:12.568Z,1.53
2023-03-24T08:35:39.937Z,1.87
2023-03-24T08:38:09.971Z,1.27
2023-03-24T08:40:37.749Z,1.30
2023-03-24T08:43:08.607Z,2.83
2023-03-24T08:45:35.785Z,1.70
2023-03-24T08:48:03.916Z,1.40
2023-03-24T08:50:34.088Z,1.63
2023-03-24T08:53:01.272Z,1.60
2023-03-24T08:55:28.186Z,1.37
2023-03-24T08:57:54.876Z,1.60
2023-03-24T09:00:22.709Z,1.60
2023-03-24T09:02:51.847Z,1.60
2023-03-24T09:05:32.890Z,1.60
2023-03-24T09:08:08.295Z,1.70
2023-03-24T09:10:35.234Z,1.60
2023-03-24T09:13:02.023Z,1.20
2023-03-24T09:15:28.851Z,1.53
2023-03-24T09:17:55.645Z,1.80
2023-03-24T09:20:22.491Z,1.07
2023-03-24T09:22:49.265Z,1.50
2023-03-24T09:25:17.843Z,1.60
2023-03-24T09:27:44.794Z,1.50
2023-03-24T09:30:13.217Z,1.33
2023-03-24T09:32:40.008Z,1.37
2023-03-24T09:35:08.206Z,1.03
2023-03-24T09:37:35.532Z,1.50
2023-03-24T09:40:02.479Z,1.50
2023-03-24T09:42:31.966Z,0.97
2023-03-24T09:44:59.475Z,1.10
2023-03-24T09:48:02.620Z,1.20
2023-03-24T09:50:33.689Z,1.10
2023-03-24T09:53:05.027Z,1.17
2023-03-24T09:55:31.837Z,1.27
2023-03-24T09:58:06.130Z,1.30
2023-03-24T10:00:33.298Z,1.60
2023-03-24T10:03:02.213Z,1.47
2023-03-24T10:05:41.961Z,1.40
2023-03-24T10:08:13.222Z,2.00
2023-03-24T10:10:56.381Z,1.90
2023-03-24T10:13:58.492Z,1.70
2023-03-24T10:16:34.182Z,2.87
2023-03-24T10:19:40.653Z,1.43
2023-03-24T10:22:25.735Z,3.50
2023-03-24T10:24:55.146Z,1.57
2023-03-24T10:27:32.163Z,3.60
2023-03-24T10:30:07.137Z,1.90
2023-03-24T10:32:34.611Z,4.70
2023-03-24T10:35:09.462Z,1.20
2023-03-24T10:37:36.651Z,1.97
2023-03-24T10:40:06.828Z,2.30
2023-03-24T10:42:34.508Z,1.70
2023-03-24T10:45:01.805Z,2.70
2023-03-24T10:47:32.564Z,1.90
2023-03-24T10:50:12.776Z,1.43
2023-03-24T10:52:48.619Z,1.70
2023-03-24T10:55:17.560Z,1.20
2023-03-24T10:57:48.268Z,1.10
2023-03-24T11:00:26.894Z,1.50
2023-03-24T11:03:01.003Z,1.30
2023-03-24T11:05:37.816Z,1.57
2023-03-24T11:08:27.101Z,1.40
2023-03-24T11:10:54.300Z,1.60
2023-03-24T11:13:33.918Z,1.07
2023-03-24T11:16:14.238Z,1.67
2023-03-24T11:19:03.648Z,1.73
2023-03-24T11:21:32.028Z,1.03
2023-03-24T11:24:03.930Z,1.20
2023-03-24T11:26:38.316Z,1.53
2023-03-24T11:29:15.041Z,2.03
2023-03-24T11:31:42.305Z,1.60
2023-03-24T11:34:24.429Z,1.50
2023-03-24T11:37:04.917Z,1.30
2023-03-24T11:39:32.995Z,1.80
2023-03-24T11:42:15.687Z,1.57
2023-03-24T11:44:45.500Z,1.70
2023-03-24T11:47:16.978Z,2.20
2023-03-24T11:49:46.844Z,1.33
2023-03-24T11:52:35.268Z,1.50
2023-03-24T11:55:02.634Z,1.50
2023-03-24T11:57:41.676Z,1.83
2023-03-24T12:00:41.174Z,1.60
2023-03-24T12:03:26.632Z,1.60
2023-03-24T12:06:08.721Z,1.50
2023-03-24T12:08:49.972Z,1.43
2023-03-24T12:11:36.131Z,1.70
2023-03-24T12:14:02.885Z,1.60
2023-03-24T12:16:44.877Z,1.60
2023-03-24T12:19:15.071Z,2.07
2023-03-24T12:22:15.945Z,2.57
2023-03-24T12:25:11.603Z,1.70
2023-03-24T12:28:02.033Z,2.00
2023-03-24T12:30:52.532Z,1.77
2023-03-24T12:33:40.828Z,1.80
2023-03-24T12:36:31.836Z,1.60
2023-03-24T12:39:11.794Z,1.80
2023-03-24T12:41:51.937Z,1.60
2023-03-24T12:44:32.083Z,2.37
2023-03-24T12:47:20.320Z,1.73
2023-03-24T12:49:59.256Z,1.80
2023-03-24T12:52:38.735Z,1.70
2023-03-24T12:55:33.131Z,2.43
2023-03-24T12:58:04.952Z,2.37
2023-03-24T13:00:34.191Z,1.83
2023-03-24T13:03:01.987Z,1.67
2023-03-24T13:05:33.451Z,1.70
2023-03-24T13:08:06.599Z,1.60
2023-03-24T13:10:34.679Z,1.77
2023-03-24T13:13:01.478Z,1.67
2023-03-24T13:15:31.998Z,1.87
2023-03-24T13:18:10.983Z,2.33
2023-03-24T13:20:50.530Z,1.47
2023-03-24T13:23:36.227Z,1.63
2023-03-24T13:26:21.819Z,1.30
2023-03-24T13:29:17.543Z,2.10
2023-03-24T13:31:51.491Z,1.57
2023-03-24T13:34:30.437Z,2.03
2023-03-24T13:37:05.665Z,2.23
2023-03-24T13:39:33.709Z,2.00
2023-03-24T13:42:00.525Z,2.17
2023-03-24T13:44:44.317Z,2.30
2023-03-24T13:47:17.586Z,1.80
2023-03-24T13:50:01.649Z,2.30
2023-03-24T13:52:36.803Z,2.03
2023-03-24T13:55:10.042Z,1.67
2023-03-24T13:57:40.876Z,1.93
2023-03-24T14:00:12.141Z,2.30
2023-03-24T14:02:49.994Z,2.10
2023-03-24T14:05:23.984Z,2.13
2023-03-24T14:07:51.507Z,2.23
2023-03-24T14:10:20.677Z,2.70
2023-03-24T14:12:54.270Z,3.40
2023-03-24T14:15:33.528Z,2.00
2023-03-24T14:18:22.731Z,2.60
2023-03-24T14:21:00.598Z,2.37
2023-03-24T14:23:49.726Z,2.00
2023-03-24T14:26:23.339Z,2.43
2023-03-24T14:28:53.634Z,2.73
2023-03-24T14:31:25.529Z,2.40
2023-03-24T14:34:02.039Z,2.30
2023-03-24T14:36:39.346Z,2.20
2023-03-24T14:39:27.102Z,1.97
2023-03-24T14:41:53.950Z,4.43
2023-03-24T14:44:49.526Z,2.00
2023-03-24T14:47:17.003Z,2.30
2023-03-24T14:49:46.795Z,2.50
2023-03-24T14:52:19.225Z,1.70
2023-03-24T14:54:54.617Z,2.87
2023-03-24T14:57:28.905Z,2.37
2023-03-24T14:59:58.929Z,2.20
2023-03-24T15:02:30.138Z,1.63
2023-03-24T15:05:19.652Z,2.47
2023-03-24T15:08:18.317Z,2.73
2023-03-24T15:11:00.532Z,2.20
2023-03-24T15:13:46.176Z,1.60
2023-03-24T15:16:13.032Z,2.37
2023-03-24T15:19:00.669Z,2.10
2023-03-24T15:21:32.468Z,1.97
2023-03-24T15:24:01.328Z,2.00
2023-03-24T15:26:31.693Z,1.50
2023-03-24T15:29:02.007Z,1.80
2023-03-24T15:31:32.006Z,1.90
2023-03-24T15:34:27.028Z,1.83
2023-03-24T15:36:55.652Z,2.10
2023-03-24T15:39:29.195Z,1.77
2023-03-24T15:41:56.213Z,2.20
2023-03-24T15:44:28.033Z,1.90
2023-03-24T15:46:56.333Z,2.07
2023-03-24T15:49:31.732Z,1.77
2023-03-24T15:52:03.060Z,2.07
2023-03-24T15:54:42.074Z,2.13
2023-03-24T15:57:13.018Z,3.03
2023-03-24T15:59:47.461Z,2.30
2023-03-24T16:02:24.533Z,2.23
2023-03-24T16:05:00.194Z,1.77
2023-03-24T16:07:35.626Z,1.70
2023-03-24T16:10:08.527Z,2.20
2023-03-24T16:12:36.206Z,2.00
2023-03-24T16:15:05.759Z,2.13
2023-03-24T16:17:32.926Z,2.53
2023-03-24T16:19:59.788Z,1.93
2023-03-24T16:22:26.575Z,2.27
2023-03-24T16:24:53.353Z,2.03
2023-03-24T16:27:20.576Z,2.00
2023-03-24T16:29:47.431Z,2.23
2023-03-24T16:32:14.184Z,1.83
2023-03-24T16:34:41.193Z,1.93
2023-03-24T16:37:10.652Z,1.97
2023-03-24T16:39:37.417Z,1.80
2023-03-24T16:42:04.315Z,1.60
2023-03-24T16:44:31.043Z,1.90
2023-03-24T16:46:57.886Z,1.70
2023-03-24T16:49:24.830Z,1.70
2023-03-24T16:51:52.842Z,1.90
2023-03-24T16:54:20.838Z,1.70
2023-03-24T16:56:47.905Z,2.00
2023-03-24T16:59:15.600Z,2.10
2023-03-24T17:01:45.180Z,2.00
2023-03-24T17:04:19.535Z,3.10
2023-03-24T17:06:52.898Z,3.20
2023-03-24T17:09:20.786Z,2.90
2023-03-24T17:11:49.116Z,3.10
2023-03-24T17:14:15.979Z,2.50
2023-03-24T17:16:43.891Z,2.30
2023-03-24T17:19:15.400Z,1.90
2023-03-24T17:21:54.212Z,1.60
2023-03-24T17:24:21.074Z,2.27
2023-03-24T17:26:47.908Z,2.50
2023-03-24T17:29:15.862Z,2.33
2023-03-24T17:31:45.432Z,1.90
2023-03-24T17:34:21.604Z,3.50
2023-03-24T17:36:50.716Z,2.60
2023-03-24T17:39:18.401Z,2.60
2023-03-24T17:41:45.264Z,2.97
2023-03-24T17:44:12.016Z,2.70
2023-03-24T17:46:38.811Z,2.77
2023-03-24T17:49:05.679Z,2.37
2023-03-24T17:51:32.693Z,2.40
2023-03-24T17:53:59.890Z,3.13
2023-03-24T17:56:26.862Z,3.10
2023-03-24T17:58:55.016Z,2.90
2023-03-24T18:01:22.137Z,2.33
2023-03-24T18:03:49.805Z,2.13
2023-03-24T18:06:17.159Z,2.90
2023-03-24T18:08:44.149Z,6.03
2023-03-24T18:11:12.808Z,6.60
2023-03-24T18:13:39.621Z,2.10
2023-03-24T18:16:18.181Z,1.87
2023-03-24T18:18:48.593Z,2.20
2023-03-24T18:21:15.525Z,2.33
2023-03-24T18:23:42.355Z,1.97
2023-03-24T18:26:09.220Z,0.83
2023-03-24T18:28:37.372Z,0.60
2023-03-24T18:31:09.397Z,0.90
2023-03-24T18:33:36.192Z,1.63
2023-03-24T18:36:04.266Z,0.97
2023-03-24T18:38:31.116Z,0.30
2023-03-24T18:41:02.206Z,2.00
2023-03-24T18:43:30.621Z,0.30
2023-03-24T18:45:57.697Z,0.20
2023-03-24T18:48:24.479Z,0.93
2023-03-24T18:50:52.066Z,0.30
2023-03-24T18:55:47.031Z,0.30
2023-03-24T18:58:15.950Z,0.73
2023-03-24T19:00:43.731Z,0.20
2023-03-24T19:03:10.654Z,0.40
2023-03-24T19:05:37.495Z,0.70
2023-03-24T19:08:07.016Z,0.30
2023-03-24T19:10:37.004Z,0.30
2023-03-24T19:13:04.271Z,0.40
2023-03-24T19:15:31.276Z,0.40
2023-03-24T19:17:59.541Z,0.50
2023-03-24T19:20:27.409Z,1.30
2023-03-24T19:22:54.656Z,1.93
2023-03-24T19:25:21.687Z,1.50
2023-03-24T19:27:48.588Z,0.70
2023-03-24T19:30:15.823Z,0.90
2023-03-24T19:32:42.561Z,0.93
2023-03-24T19:35:09.910Z,0.67
2023-03-24T19:37:37.715Z,0.40
2023-03-24T19:40:10.397Z,0.40
2023-03-24T19:42:41.782Z,0.30
2023-03-24T19:45:09.537Z,0.30
2023-03-24T19:47:36.917Z,0.40
2023-03-24T19:50:07.774Z,0.97
2023-03-24T19:52:35.143Z,0.60
2023-03-24T19:55:02.436Z,0.40
2023-03-24T19:57:31.816Z,0.40
2023-03-24T19:59:58.738Z,0.50
2023-03-24T20:02:25.858Z,1.57
2023-03-24T20:04:55.188Z,0.50
2023-03-24T20:07:22.707Z,0.70
2023-03-24T20:09:49.517Z,0.50
2023-03-24T20:12:16.434Z,0.37
2023-03-24T20:14:43.574Z,0.63
2023-03-24T20:17:17.178Z,0.47
2023-03-24T20:19:44.284Z,0.63
2023-03-24T20:22:11.012Z,0.40
2023-03-24T20:24:38.669Z,0.40
2023-03-24T20:27:06.506Z,0.40
2023-03-24T20:29:34.643Z,0.40
2023-03-24T20:32:01.892Z,2.60
2023-03-24T20:34:28.702Z,0.50
2023-03-24T20:36:56.072Z,0.30
2023-03-24T20:39:23.117Z,0.30
2023-03-24T20:41:49.904Z,0.30
2023-03-24T20:44:16.797Z,0.47
2023-03-24T20:46:45.801Z,0.30
2023-03-24T20:49:18.830Z,0.30
2023-03-24T20:51:46.007Z,0.40
2023-03-24T20:54:12.884Z,0.40
2023-03-24T20:56:39.756Z,1.13
2023-03-24T20:59:07.029Z,0.30
2023-03-24T21:01:37.165Z,0.40
2023-03-24T21:04:08.989Z,0.40
2023-03-24T21:06:39.408Z,0.80
2023-03-24T21:09:06.224Z,2.30
2023-03-24T21:11:33.129Z,1.40
2023-03-24T21:14:01.261Z,1.33
2023-03-24T21:16:28.383Z,0.93
2023-03-24T21:18:56.060Z,0.70
2023-03-24T21:21:23.113Z,0.60
2023-03-24T21:23:52.693Z,0.40
2023-03-24T21:26:19.442Z,0.50
2023-03-24T21:28:46.602Z,0.40
2023-03-24T21:31:26.935Z,0.30
2023-03-24T21:33:54.648Z,2.93
2023-03-24T21:36:21.846Z,0.50
2023-03-24T21:38:49.859Z,0.40
2023-03-24T21:41:17.649Z,0.53
2023-03-24T21:43:46.900Z,0.50
2023-03-24T21:46:21.000Z,2.10
2023-03-24T21:48:52.000Z,1.67
2023-03-24T21:51:26.079Z,0.70
2023-03-24T21:53:55.715Z,0.53
2023-03-24T21:56:23.093Z,0.60
2023-03-24T21:58:49.946Z,0.93
2023-03-24T22:01:16.731Z,0.50
2023-03-24T22:03:43.589Z,0.40
2023-03-24T22:06:10.779Z,1.23
2023-03-24T22:08:38.774Z,0.60
2023-03-24T22:11:06.347Z,0.33
2023-03-24T22:13:33.412Z,0.60
2023-03-24T22:16:01.506Z,0.97
2023-03-24T22:18:29.317Z,0.97
2023-03-24T22:21:04.317Z,0.53
2023-03-24T22:23:33.539Z,0.60
2023-03-24T22:26:08.720Z,0.70
2023-03-24T22:28:35.990Z,0.53
2023-03-24T22:31:03.983Z,0.60
2023-03-24T22:33:30.779Z,1.23
2023-03-24T22:35:57.926Z,1.00
2023-03-24T22:38:25.142Z,1.53
2023-03-24T22:40:55.618Z,2.10
2023-03-24T22:43:22.370Z,0.97
2023-03-24T22:45:49.390Z,1.17
2023-03-24T22:48:16.173Z,0.77
2023-03-24T22:50:42.914Z,1.43
2023-03-24T22:53:09.737Z,2.00
2023-03-24T22:55:36.875Z,0.60
2023-03-24T22:58:03.809Z,0.40
2023-03-24T23:00:31.571Z,0.47
2023-03-24T23:02:58.432Z,0.57
2023-03-24T23:05:25.553Z,0.37
2023-03-24T23:07:52.372Z,0.40
2023-03-24T23:10:19.638Z,0.30
2023-03-24T23:12:46.451Z,0.40
2023-03-24T23:15:14.164Z,0.30
2023-03-24T23:17:42.641Z,0.90
2023-03-24T23:20:10.761Z,0.43
2023-03-24T23:22:38.793Z,0.60
2023-03-24T23:25:07.002Z,0.40
2023-03-24T23:27:37.530Z,0.30
2023-03-24T23:30:06.149Z,0.40
2023-03-24T23:32:34.113Z,0.33
2023-03-24T23:35:02.810Z,0.33
2023-03-24T23:37:32.919Z,0.30
2023-03-24T23:40:09.906Z,0.40
2023-03-24T23:42:37.336Z,0.57
2023-03-24T23:45:05.365Z,0.40
2023-03-24T23:47:33.540Z,0.60
2023-03-24T23:50:01.305Z,0.50
2023-03-24T23:52:28.252Z,0.40
2023-03-24T23:54:55.057Z,0.40
2023-03-24T23:57:22.016Z,0.50
2023-03-24T23:59:49.506Z,0.40
